BVL7440 LIBD-LBWN
Flight info
| Callsign | BVL7440 |
|---|---|
| Flight time | 1h 13m |
| Altitude | 37000 |
| Route | DOLON DCT PAPIZ DCT BONZI DCT SIN DCT VELBA DCT DICXA |
| Aircraft | A320/M-SDE3FGHIRWY/LB1 |
Departure
| Time | 2026-04-21 15:08 |
|---|---|
| Airport | Bari Karol Wojtyła International Airport (LIBD) |
Arrival
| Time | 2026-04-21 16:21 |
|---|---|
| Airport | Varna Airport (LBWN) |
| Time | Latitude | Longitude | Altitude | Speed | Heading |
|---|---|---|---|---|---|
| 2026-04-21 14:49 | 41.13674 | 16.76706 | 139 ft | 0 kts | 205° |
| 2026-04-21 14:51 | 41.13675 | 16.76706 | 139 ft | 0 kts | 205° |
| 2026-04-21 15:00 | 41.13677 | 16.76669 | 139 ft | 9 kts | 347° |
| 2026-04-21 15:00 | 41.13746 | 16.76594 | 138 ft | 14 kts | 284° |
| 2026-04-21 15:01 | 41.13783 | 16.76498 | 140 ft | 8 kts | 257° |
| 2026-04-21 15:01 | 41.13769 | 16.76444 | 141 ft | 12 kts | 253° |
| 2026-04-21 15:01 | 41.13708 | 16.76215 | 149 ft | 29 kts | 250° |
| 2026-04-21 15:01 | 41.13644 | 16.75989 | 157 ft | 23 kts | 249° |
| 2026-04-21 15:02 | 41.13597 | 16.75815 | 164 ft | 17 kts | 251° |
| 2026-04-21 15:02 | 41.13551 | 16.75652 | 166 ft | 24 kts | 249° |
| 2026-04-21 15:02 | 41.13496 | 16.75466 | 170 ft | 20 kts | 249° |
| 2026-04-21 15:02 | 41.13450 | 16.75305 | 171 ft | 17 kts | 249° |
| 2026-04-21 15:03 | 41.13414 | 16.75177 | 175 ft | 12 kts | 250° |
| 2026-04-21 15:03 | 41.13388 | 16.75083 | 178 ft | 18 kts | 250° |
| 2026-04-21 15:03 | 41.13324 | 16.74865 | 201 ft | 21 kts | 247° |
| 2026-04-21 15:03 | 41.13276 | 16.74699 | 197 ft | 18 kts | 249° |
| 2026-04-21 15:04 | 41.13236 | 16.74559 | 205 ft | 15 kts | 250° |
| 2026-04-21 15:04 | 41.13206 | 16.74446 | 207 ft | 11 kts | 251° |
| 2026-04-21 15:04 | 41.13181 | 16.74354 | 206 ft | 11 kts | 249° |
| 2026-04-21 15:04 | 41.13164 | 16.74263 | 208 ft | 9 kts | 275° |
| 2026-04-21 15:05 | 41.13190 | 16.74192 | 202 ft | 7 kts | 300° |
| 2026-04-21 15:05 | 41.13191 | 16.74189 | 202 ft | 0 kts | 300° |
| 2026-04-21 15:05 | 41.13193 | 16.74185 | 201 ft | 3 kts | 300° |
| 2026-04-21 15:06 | 41.13276 | 16.74109 | 204 ft | 14 kts | 359° |
| 2026-04-21 15:06 | 41.13312 | 16.74157 | 201 ft | 0 kts | 69° |
| 2026-04-21 15:07 | 41.13348 | 16.74284 | 204 ft | 47 kts | 70° |
| 2026-04-21 15:07 | 41.13648 | 16.75337 | 172 ft | 129 kts | 69° |
| 2026-04-21 15:07 | 41.13879 | 16.76164 | 239 ft | 153 kts | 70° |
| 2026-04-21 15:08 | 41.14255 | 16.77485 | 893 ft | 154 kts | 73° |
| 2026-04-21 15:08 | 41.14329 | 16.78892 | 1515 ft | 161 kts | 105° |
| 2026-04-21 15:08 | 41.13911 | 16.80297 | 2043 ft | 173 kts | 110° |
| 2026-04-21 15:08 | 41.13421 | 16.81877 | 2317 ft | 196 kts | 111° |
| 2026-04-21 15:09 | 41.12873 | 16.83647 | 2566 ft | 218 kts | 112° |
| 2026-04-21 15:09 | 41.12269 | 16.85577 | 2905 ft | 239 kts | 112° |
| 2026-04-21 15:09 | 41.11595 | 16.87719 | 3284 ft | 263 kts | 113° |
| 2026-04-21 15:09 | 41.10870 | 16.90021 | 3938 ft | 275 kts | 114° |
| 2026-04-21 15:10 | 41.10135 | 16.92359 | 4749 ft | 280 kts | 114° |
| 2026-04-21 15:10 | 41.09375 | 16.94782 | 5561 ft | 286 kts | 115° |
| 2026-04-21 15:10 | 41.08606 | 16.97240 | 6379 ft | 291 kts | 114° |
| 2026-04-21 15:10 | 41.07825 | 16.99737 | 7151 ft | 296 kts | 114° |
| 2026-04-21 15:11 | 41.07029 | 17.02275 | 7929 ft | 300 kts | 114° |
| 2026-04-21 15:11 | 41.06216 | 17.04859 | 8690 ft | 306 kts | 114° |
| 2026-04-21 15:11 | 41.05400 | 17.07452 | 9452 ft | 311 kts | 114° |
| 2026-04-21 15:11 | 41.04561 | 17.10119 | 10158 ft | 317 kts | 114° |
| 2026-04-21 15:12 | 41.03682 | 17.12911 | 10443 ft | 339 kts | 114° |
| 2026-04-21 15:12 | 41.02743 | 17.15892 | 10633 ft | 362 kts | 114° |
| 2026-04-21 15:12 | 41.01744 | 17.19061 | 10925 ft | 379 kts | 114° |
| 2026-04-21 15:12 | 41.00731 | 17.22282 | 11505 ft | 386 kts | 114° |
| 2026-04-21 15:13 | 40.99694 | 17.25572 | 12160 ft | 390 kts | 114° |
| 2026-04-21 15:13 | 40.98640 | 17.28901 | 12814 ft | 394 kts | 114° |
| 2026-04-21 15:13 | 40.97570 | 17.32272 | 13492 ft | 398 kts | 113° |
| 2026-04-21 15:13 | 40.96491 | 17.35674 | 14099 ft | 402 kts | 113° |
| 2026-04-21 15:14 | 40.95402 | 17.39105 | 14655 ft | 407 kts | 113° |
| 2026-04-21 15:14 | 40.94299 | 17.42576 | 15213 ft | 411 kts | 113° |
| 2026-04-21 15:14 | 40.93187 | 17.46069 | 15771 ft | 415 kts | 113° |
| 2026-04-21 15:14 | 40.92056 | 17.49605 | 16320 ft | 419 kts | 113° |
| 2026-04-21 15:15 | 40.90916 | 17.53165 | 16864 ft | 422 kts | 113° |
| 2026-04-21 15:15 | 40.89829 | 17.56793 | 17384 ft | 426 kts | 107° |
| 2026-04-21 15:15 | 40.89148 | 17.60621 | 17904 ft | 430 kts | 97° |
| 2026-04-21 15:15 | 40.88952 | 17.64567 | 18380 ft | 432 kts | 87° |
| 2026-04-21 15:16 | 40.88993 | 17.68544 | 18833 ft | 435 kts | 87° |
| 2026-04-21 15:16 | 40.89026 | 17.72502 | 19291 ft | 438 kts | 87° |
| 2026-04-21 15:16 | 40.89052 | 17.76539 | 19749 ft | 441 kts | 87° |
| 2026-04-21 15:16 | 40.89076 | 17.80609 | 20196 ft | 444 kts | 87° |
| 2026-04-21 15:17 | 40.89100 | 17.84718 | 20638 ft | 447 kts | 87° |
| 2026-04-21 15:17 | 40.89119 | 17.88848 | 21071 ft | 450 kts | 88° |
| 2026-04-21 15:17 | 40.89137 | 17.93000 | 21492 ft | 453 kts | 87° |
| 2026-04-21 15:17 | 40.89155 | 17.97180 | 21914 ft | 457 kts | 87° |
| 2026-04-21 15:18 | 40.89172 | 18.01397 | 22329 ft | 460 kts | 87° |
| 2026-04-21 15:18 | 40.89188 | 18.05648 | 22740 ft | 463 kts | 87° |
| 2026-04-21 15:18 | 40.89201 | 18.09916 | 23142 ft | 466 kts | 87° |
| 2026-04-21 15:18 | 40.89214 | 18.14168 | 23522 ft | 469 kts | 87° |
| 2026-04-21 15:19 | 40.89227 | 18.18494 | 23852 ft | 472 kts | 87° |
| 2026-04-21 15:19 | 40.89238 | 18.22856 | 24184 ft | 475 kts | 87° |
| 2026-04-21 15:19 | 40.89245 | 18.27231 | 24511 ft | 477 kts | 87° |
| 2026-04-21 15:19 | 40.89251 | 18.31627 | 24835 ft | 479 kts | 87° |
| 2026-04-21 15:20 | 40.89256 | 18.36046 | 25158 ft | 482 kts | 87° |
| 2026-04-21 15:20 | 40.89263 | 18.40491 | 25476 ft | 484 kts | 87° |
| 2026-04-21 15:20 | 40.89269 | 18.44958 | 25799 ft | 486 kts | 87° |
| 2026-04-21 15:20 | 40.89270 | 18.49380 | 26112 ft | 489 kts | 87° |
| 2026-04-21 15:21 | 40.89268 | 18.53893 | 26429 ft | 491 kts | 87° |
| 2026-04-21 15:21 | 40.89264 | 18.58417 | 26733 ft | 493 kts | 87° |
| 2026-04-21 15:21 | 40.89259 | 18.62971 | 27033 ft | 496 kts | 87° |
| 2026-04-21 15:21 | 40.89254 | 18.67536 | 27316 ft | 498 kts | 87° |
| 2026-04-21 15:22 | 40.89248 | 18.72124 | 27598 ft | 500 kts | 87° |
| 2026-04-21 15:22 | 40.89237 | 18.76731 | 27878 ft | 502 kts | 87° |
| 2026-04-21 15:22 | 40.89223 | 18.81364 | 28153 ft | 504 kts | 87° |
| 2026-04-21 15:22 | 40.89207 | 18.85947 | 28416 ft | 506 kts | 87° |
| 2026-04-21 15:23 | 40.89411 | 18.90651 | 28682 ft | 504 kts | 78° |
| 2026-04-21 15:23 | 40.90081 | 18.95122 | 28931 ft | 501 kts | 70° |
| 2026-04-21 15:23 | 40.91211 | 18.99446 | 29298 ft | 494 kts | 61° |
| 2026-04-21 15:23 | 40.92741 | 19.03481 | 29673 ft | 488 kts | 54° |
| 2026-04-21 15:24 | 40.94427 | 19.07386 | 30043 ft | 487 kts | 54° |
| 2026-04-21 15:24 | 40.96100 | 19.11288 | 30361 ft | 487 kts | 54° |
| 2026-04-21 15:24 | 40.97764 | 19.15188 | 30689 ft | 486 kts | 54° |
| 2026-04-21 15:24 | 40.99426 | 19.19095 | 31005 ft | 485 kts | 54° |
| 2026-04-21 15:25 | 41.01057 | 19.22932 | 31342 ft | 485 kts | 54° |
| 2026-04-21 15:25 | 41.02710 | 19.26820 | 31672 ft | 484 kts | 54° |
| 2026-04-21 15:25 | 41.04364 | 19.30705 | 32015 ft | 483 kts | 55° |
| 2026-04-21 15:25 | 41.06015 | 19.34582 | 32338 ft | 482 kts | 55° |
| 2026-04-21 15:26 | 41.07663 | 19.38450 | 32661 ft | 481 kts | 55° |
| 2026-04-21 15:26 | 41.09305 | 19.42310 | 32995 ft | 480 kts | 55° |
| 2026-04-21 15:26 | 41.10948 | 19.46187 | 33323 ft | 480 kts | 55° |
| 2026-04-21 15:26 | 41.12574 | 19.50035 | 33652 ft | 479 kts | 55° |
| 2026-04-21 15:27 | 41.14182 | 19.53852 | 33959 ft | 479 kts | 56° |
| 2026-04-21 15:27 | 41.15808 | 19.57717 | 34223 ft | 478 kts | 56° |
| 2026-04-21 15:27 | 41.17429 | 19.61569 | 34472 ft | 479 kts | 56° |
| 2026-04-21 15:27 | 41.19055 | 19.65432 | 34714 ft | 479 kts | 56° |
| 2026-04-21 15:28 | 41.20682 | 19.69300 | 34944 ft | 479 kts | 56° |
| 2026-04-21 15:28 | 41.22305 | 19.73170 | 35165 ft | 480 kts | 56° |
| 2026-04-21 15:28 | 41.23931 | 19.77055 | 35464 ft | 480 kts | 56° |
| 2026-04-21 15:28 | 41.25554 | 19.80935 | 35712 ft | 480 kts | 56° |
| 2026-04-21 15:29 | 41.27176 | 19.84819 | 35892 ft | 481 kts | 56° |
| 2026-04-21 15:29 | 41.28782 | 19.88672 | 36063 ft | 482 kts | 56° |
| 2026-04-21 15:29 | 41.30405 | 19.92576 | 36246 ft | 482 kts | 56° |
| 2026-04-21 15:29 | 41.32031 | 19.96487 | 36488 ft | 483 kts | 56° |
| 2026-04-21 15:30 | 41.33656 | 20.00401 | 36703 ft | 483 kts | 56° |
| 2026-04-21 15:30 | 41.35290 | 20.04333 | 36904 ft | 483 kts | 56° |
| 2026-04-21 15:30 | 41.38558 | 20.12211 | 36960 ft | 486 kts | 56° |
| 2026-04-21 15:31 | 41.41809 | 20.20081 | 36968 ft | 487 kts | 56° |
| 2026-04-21 15:31 | 41.45071 | 20.27996 | 36967 ft | 487 kts | 56° |
| 2026-04-21 15:32 | 41.48329 | 20.35923 | 36963 ft | 487 kts | 57° |
| 2026-04-21 15:32 | 41.51551 | 20.43807 | 36972 ft | 488 kts | 58° |
| 2026-04-21 15:33 | 41.53997 | 20.52331 | 36964 ft | 493 kts | 68° |
| 2026-04-21 15:33 | 41.56156 | 20.61056 | 36969 ft | 494 kts | 68° |
| 2026-04-21 15:34 | 41.58302 | 20.69723 | 36979 ft | 494 kts | 68° |
| 2026-04-21 15:34 | 41.60464 | 20.78458 | 36978 ft | 494 kts | 68° |
| 2026-04-21 15:35 | 41.62598 | 20.87127 | 36986 ft | 494 kts | 68° |
| 2026-04-21 15:35 | 41.64739 | 20.95865 | 37002 ft | 494 kts | 68° |
| 2026-04-21 15:36 | 41.66872 | 21.04605 | 36997 ft | 494 kts | 68° |
| 2026-04-21 15:36 | 41.68982 | 21.13305 | 36998 ft | 493 kts | 68° |
| 2026-04-21 15:37 | 41.71096 | 21.22059 | 37005 ft | 493 kts | 68° |
| 2026-04-21 15:37 | 41.73199 | 21.30764 | 37017 ft | 494 kts | 69° |
| 2026-04-21 15:38 | 41.75303 | 21.39520 | 37029 ft | 494 kts | 69° |
| 2026-04-21 15:38 | 41.77400 | 21.48289 | 37039 ft | 494 kts | 69° |
| 2026-04-21 15:39 | 41.79493 | 21.57066 | 37046 ft | 493 kts | 69° |
| 2026-04-21 15:39 | 41.81569 | 21.65777 | 37043 ft | 494 kts | 69° |
| 2026-04-21 15:40 | 41.83651 | 21.74565 | 37044 ft | 494 kts | 69° |
| 2026-04-21 15:40 | 41.85721 | 21.83362 | 37041 ft | 494 kts | 69° |
| 2026-04-21 15:41 | 41.87788 | 21.92173 | 37036 ft | 494 kts | 69° |
| 2026-04-21 15:41 | 41.89844 | 22.00952 | 37026 ft | 495 kts | 69° |
| 2026-04-21 15:42 | 41.91895 | 22.09769 | 37010 ft | 494 kts | 69° |
| 2026-04-21 15:42 | 41.93927 | 22.18530 | 37007 ft | 494 kts | 69° |
| 2026-04-21 15:43 | 41.95973 | 22.27368 | 37007 ft | 494 kts | 69° |
| 2026-04-21 15:43 | 41.97724 | 22.36329 | 37001 ft | 498 kts | 80° |
| 2026-04-21 15:44 | 41.97861 | 22.45614 | 36999 ft | 500 kts | 91° |
| 2026-04-21 15:44 | 41.97603 | 22.54986 | 36998 ft | 501 kts | 91° |
| 2026-04-21 15:45 | 41.97351 | 22.64369 | 37003 ft | 501 kts | 91° |
| 2026-04-21 15:45 | 41.97096 | 22.73668 | 37008 ft | 501 kts | 91° |
| 2026-04-21 15:46 | 41.96881 | 22.83028 | 37008 ft | 500 kts | 86° |
| 2026-04-21 15:46 | 41.98012 | 22.92188 | 37005 ft | 493 kts | 68° |
| 2026-04-21 15:47 | 42.00624 | 23.00670 | 37004 ft | 490 kts | 62° |
| 2026-04-21 15:47 | 42.03318 | 23.09064 | 37008 ft | 491 kts | 63° |
| 2026-04-21 15:48 | 42.06006 | 23.17538 | 37007 ft | 491 kts | 63° |
| 2026-04-21 15:48 | 42.08686 | 23.26034 | 37008 ft | 492 kts | 63° |
| 2026-04-21 15:49 | 42.11348 | 23.34471 | 37002 ft | 492 kts | 63° |
| 2026-04-21 15:49 | 42.14033 | 23.42988 | 37005 ft | 492 kts | 63° |
| 2026-04-21 15:50 | 42.16688 | 23.51446 | 37006 ft | 492 kts | 63° |
| 2026-04-21 15:50 | 42.19353 | 23.59970 | 37011 ft | 493 kts | 63° |
| 2026-04-21 15:51 | 42.22007 | 23.68489 | 37015 ft | 493 kts | 63° |
| 2026-04-21 15:51 | 42.24649 | 23.76989 | 37008 ft | 493 kts | 63° |
| 2026-04-21 15:52 | 42.27301 | 23.85548 | 37016 ft | 493 kts | 63° |
| 2026-04-21 15:52 | 42.29931 | 23.94065 | 37019 ft | 494 kts | 63° |
| 2026-04-21 15:53 | 42.32578 | 24.02670 | 37028 ft | 494 kts | 63° |
| 2026-04-21 15:53 | 42.35203 | 24.11210 | 37025 ft | 494 kts | 64° |
| 2026-04-21 15:54 | 42.37394 | 24.18376 | 37023 ft | 494 kts | 64° |
| 2026-04-21 15:54 | 42.40445 | 24.28379 | 37019 ft | 494 kts | 64° |
| 2026-04-21 15:55 | 42.42622 | 24.35552 | 37018 ft | 494 kts | 64° |
| 2026-04-21 15:55 | 42.45228 | 24.44173 | 37014 ft | 494 kts | 64° |
| 2026-04-21 15:56 | 42.47824 | 24.52759 | 37015 ft | 494 kts | 64° |
| 2026-04-21 15:56 | 42.50424 | 24.61391 | 37012 ft | 494 kts | 64° |
| 2026-04-21 15:57 | 42.53017 | 24.70038 | 37017 ft | 494 kts | 64° |
| 2026-04-21 15:57 | 42.55585 | 24.78642 | 37014 ft | 494 kts | 64° |
| 2026-04-21 15:58 | 42.58166 | 24.87308 | 37023 ft | 494 kts | 64° |
| 2026-04-21 15:58 | 42.60746 | 24.95984 | 37027 ft | 494 kts | 64° |
| 2026-04-21 15:59 | 42.63290 | 25.04600 | 37030 ft | 494 kts | 65° |
| 2026-04-21 15:59 | 42.65682 | 25.13367 | 37023 ft | 495 kts | 68° |
| 2026-04-21 16:00 | 42.67911 | 25.22224 | 37024 ft | 495 kts | 68° |
| 2026-04-21 16:00 | 42.70121 | 25.31049 | 37031 ft | 495 kts | 68° |
| 2026-04-21 16:01 | 42.72383 | 25.39902 | 37012 ft | 495 kts | 68° |
| 2026-04-21 16:01 | 42.73520 | 25.44315 | 36714 ft | 494 kts | 68° |
| 2026-04-21 16:01 | 42.74661 | 25.48745 | 36024 ft | 494 kts | 68° |
| 2026-04-21 16:02 | 42.75798 | 25.53177 | 35143 ft | 499 kts | 68° |
| 2026-04-21 16:02 | 42.76932 | 25.57621 | 34216 ft | 505 kts | 68° |
| 2026-04-21 16:02 | 42.78088 | 25.62173 | 33120 ft | 512 kts | 68° |
| 2026-04-21 16:02 | 42.79253 | 25.66771 | 32049 ft | 516 kts | 68° |
| 2026-04-21 16:03 | 42.80431 | 25.71419 | 31168 ft | 518 kts | 68° |
| 2026-04-21 16:03 | 42.81612 | 25.76093 | 29930 ft | 527 kts | 68° |
| 2026-04-21 16:03 | 42.82804 | 25.80821 | 28895 ft | 527 kts | 68° |
| 2026-04-21 16:03 | 42.83962 | 25.85431 | 27981 ft | 525 kts | 68° |
| 2026-04-21 16:04 | 42.84005 | 25.85600 | 27958 ft | 525 kts | 68° |
| 2026-04-21 16:04 | 42.84771 | 25.89419 | 26976 ft | 525 kts | 73° |
| 2026-04-21 16:04 | 42.85774 | 25.94179 | 26174 ft | 519 kts | 69° |
| 2026-04-21 16:05 | 42.86947 | 25.98822 | 25456 ft | 512 kts | 67° |
| 2026-04-21 16:05 | 42.88195 | 26.03341 | 24692 ft | 507 kts | 66° |
| 2026-04-21 16:05 | 42.89451 | 26.07803 | 23634 ft | 511 kts | 66° |
| 2026-04-21 16:05 | 42.90696 | 26.12344 | 22733 ft | 510 kts | 67° |
| 2026-04-21 16:06 | 42.91889 | 26.16901 | 22035 ft | 506 kts | 68° |
| 2026-04-21 16:06 | 42.93019 | 26.21428 | 21322 ft | 501 kts | 69° |
| 2026-04-21 16:06 | 42.94105 | 26.25927 | 20638 ft | 496 kts | 70° |
| 2026-04-21 16:06 | 42.95168 | 26.30375 | 19985 ft | 490 kts | 70° |
| 2026-04-21 16:07 | 42.96209 | 26.34718 | 19375 ft | 485 kts | 70° |
| 2026-04-21 16:07 | 42.97261 | 26.39054 | 18780 ft | 479 kts | 70° |
| 2026-04-21 16:07 | 42.98317 | 26.43361 | 18195 ft | 474 kts | 70° |
| 2026-04-21 16:07 | 42.99364 | 26.47617 | 17577 ft | 469 kts | 70° |
| 2026-04-21 16:08 | 43.01423 | 26.56011 | 16410 ft | 460 kts | 70° |
| 2026-04-21 16:08 | 43.02432 | 26.60152 | 15826 ft | 456 kts | 70° |
| 2026-04-21 16:08 | 43.03413 | 26.64195 | 15220 ft | 452 kts | 70° |
| 2026-04-21 16:09 | 43.04396 | 26.68257 | 14611 ft | 448 kts | 70° |
| 2026-04-21 16:09 | 43.05368 | 26.72282 | 13984 ft | 443 kts | 70° |
| 2026-04-21 16:09 | 43.06330 | 26.76270 | 13289 ft | 440 kts | 70° |
| 2026-04-21 16:09 | 43.07286 | 26.80235 | 12644 ft | 435 kts | 70° |
| 2026-04-21 16:10 | 43.08227 | 26.84142 | 11974 ft | 430 kts | 70° |
| 2026-04-21 16:10 | 43.09159 | 26.88009 | 11332 ft | 426 kts | 70° |
| 2026-04-21 16:10 | 43.10071 | 26.91795 | 10761 ft | 421 kts | 70° |
| 2026-04-21 16:10 | 43.10982 | 26.95589 | 10646 ft | 420 kts | 70° |
| 2026-04-21 16:11 | 43.11894 | 26.99387 | 10525 ft | 416 kts | 70° |
| 2026-04-21 16:11 | 43.12759 | 27.03004 | 10303 ft | 384 kts | 70° |
| 2026-04-21 16:11 | 43.13556 | 27.06357 | 10153 ft | 355 kts | 70° |
| 2026-04-21 16:11 | 43.14295 | 27.09471 | 10034 ft | 331 kts | 70° |
| 2026-04-21 16:12 | 43.14985 | 27.12389 | 9742 ft | 315 kts | 70° |
| 2026-04-21 16:12 | 43.15658 | 27.15222 | 9130 ft | 312 kts | 70° |
| 2026-04-21 16:12 | 43.16327 | 27.18029 | 8850 ft | 307 kts | 70° |
| 2026-04-21 16:12 | 43.16982 | 27.20793 | 8558 ft | 302 kts | 70° |
| 2026-04-21 16:13 | 43.17618 | 27.23480 | 8219 ft | 299 kts | 70° |
| 2026-04-21 16:13 | 43.18255 | 27.26166 | 7693 ft | 293 kts | 70° |
| 2026-04-21 16:13 | 43.18880 | 27.28810 | 7142 ft | 289 kts | 71° |
| 2026-04-21 16:13 | 43.19471 | 27.31314 | 6612 ft | 284 kts | 71° |
| 2026-04-21 16:14 | 43.20059 | 27.33812 | 6074 ft | 280 kts | 71° |
| 2026-04-21 16:14 | 43.20654 | 27.36340 | 5454 ft | 276 kts | 71° |
| 2026-04-21 16:14 | 43.21241 | 27.38834 | 4866 ft | 274 kts | 70° |
| 2026-04-21 16:14 | 43.21814 | 27.41271 | 4569 ft | 259 kts | 70° |
| 2026-04-21 16:15 | 43.22349 | 27.43558 | 4295 ft | 247 kts | 70° |
| 2026-04-21 16:15 | 43.22867 | 27.45772 | 4107 ft | 241 kts | 71° |
| 2026-04-21 16:15 | 43.23375 | 27.47946 | 3993 ft | 239 kts | 70° |
| 2026-04-21 16:15 | 43.23881 | 27.50114 | 3890 ft | 238 kts | 71° |
| 2026-04-21 16:16 | 43.24385 | 27.52274 | 3774 ft | 238 kts | 71° |
| 2026-04-21 16:16 | 43.24885 | 27.54413 | 3674 ft | 238 kts | 70° |
| 2026-04-21 16:16 | 43.25336 | 27.56562 | 3566 ft | 231 kts | 82° |
| 2026-04-21 16:16 | 43.25308 | 27.58742 | 3459 ft | 230 kts | 96° |
| 2026-04-21 16:17 | 43.25105 | 27.60909 | 3191 ft | 228 kts | 97° |
| 2026-04-21 16:17 | 43.24905 | 27.63067 | 2893 ft | 227 kts | 97° |
| 2026-04-21 16:17 | 43.24719 | 27.65183 | 2587 ft | 219 kts | 97° |
| 2026-04-21 16:17 | 43.24542 | 27.67207 | 2318 ft | 207 kts | 97° |
| 2026-04-21 16:18 | 43.24381 | 27.69059 | 2044 ft | 185 kts | 98° |
| 2026-04-21 16:18 | 43.24238 | 27.70703 | 1809 ft | 163 kts | 98° |
| 2026-04-21 16:18 | 43.24110 | 27.72163 | 1554 ft | 148 kts | 98° |
| 2026-04-21 16:18 | 43.23990 | 27.73529 | 1358 ft | 142 kts | 99° |
| 2026-04-21 16:19 | 43.23873 | 27.74851 | 1153 ft | 138 kts | 97° |
| 2026-04-21 16:19 | 43.23759 | 27.76149 | 961 ft | 137 kts | 98° |
| 2026-04-21 16:19 | 43.23646 | 27.77426 | 776 ft | 136 kts | 98° |
| 2026-04-21 16:19 | 43.23531 | 27.78728 | 583 ft | 136 kts | 98° |
| 2026-04-21 16:20 | 43.23418 | 27.80021 | 434 ft | 137 kts | 98° |
| 2026-04-21 16:20 | 43.23310 | 27.81299 | 237 ft | 135 kts | 99° |
| 2026-04-21 16:20 | 43.23210 | 27.82373 | 222 ft | 78 kts | 97° |
| 2026-04-21 16:20 | 43.23151 | 27.83019 | 223 ft | 54 kts | 99° |
| 2026-04-21 16:21 | 43.23162 | 27.83282 | 223 ft | 19 kts | 19° |
| 2026-04-21 16:21 | 43.23287 | 27.83304 | 222 ft | 18 kts | 6° |
| 2026-04-21 16:21 | 43.23389 | 27.83280 | 222 ft | 13 kts | 294° |
| 2026-04-21 16:21 | 43.23402 | 27.83164 | 222 ft | 12 kts | 275° |
| 2026-04-21 16:22 | 43.23411 | 27.83061 | 222 ft | 10 kts | 277° |
| 2026-04-21 16:22 | 43.23419 | 27.82973 | 222 ft | 9 kts | 276° |
| 2026-04-21 16:22 | 43.23427 | 27.82885 | 224 ft | 15 kts | 277° |
| 2026-04-21 16:22 | 43.23443 | 27.82707 | 222 ft | 19 kts | 277° |
| 2026-04-21 16:23 | 43.23459 | 27.82533 | 222 ft | 13 kts | 277° |
| 2026-04-21 16:23 | 43.23498 | 27.82492 | 222 ft | 7 kts | 1° |
| 2026-04-21 16:23 | 43.23522 | 27.82496 | 222 ft | 0 kts | 6° |
| 2026-04-21 16:23 | 43.23523 | 27.82496 | 222 ft | 0 kts | 6° |